sensor_id;sensor_type;location;lat;lon;timestamp;P1;durP1;ratioP1;P2;durP2;ratioP2
4268;SDS011;2148;48.554;7.834;2022-11-03T00:01:34;7.03;;;5.37;;
4268;SDS011;2148;48.554;7.834;2022-11-03T00:04:01;8.30;;;5.20;;
4268;SDS011;2148;48.554;7.834;2022-11-03T00:06:27;8.07;;;5.20;;
4268;SDS011;2148;48.554;7.834;2022-11-03T00:08:52;9.27;;;5.87;;
4268;SDS011;2148;48.554;7.834;2022-11-03T00:11:21;7.43;;;4.93;;
4268;SDS011;2148;48.554;7.834;2022-11-03T00:13:47;6.93;;;4.90;;
4268;SDS011;2148;48.554;7.834;2022-11-03T00:16:12;7.13;;;4.57;;
4268;SDS011;2148;48.554;7.834;2022-11-03T00:18:37;7.60;;;4.87;;
4268;SDS011;2148;48.554;7.834;2022-11-03T00:21:04;7.83;;;4.90;;
4268;SDS011;2148;48.554;7.834;2022-11-03T00:23:32;8.23;;;5.27;;
4268;SDS011;2148;48.554;7.834;2022-11-03T00:26:18;8.87;;;5.10;;
4268;SDS011;2148;48.554;7.834;2022-11-03T00:28:46;7.43;;;5.23;;
4268;SDS011;2148;48.554;7.834;2022-11-03T00:31:16;10.13;;;4.73;;
4268;SDS011;2148;48.554;7.834;2022-11-03T00:33:46;6.83;;;5.03;;
4268;SDS011;2148;48.554;7.834;2022-11-03T00:36:12;6.20;;;4.70;;
4268;SDS011;2148;48.554;7.834;2022-11-03T00:38:42;7.03;;;5.20;;
4268;SDS011;2148;48.554;7.834;2022-11-03T00:41:07;6.97;;;5.40;;
4268;SDS011;2148;48.554;7.834;2022-11-03T00:43:34;6.80;;;5.00;;
4268;SDS011;2148;48.554;7.834;2022-11-03T00:46:00;6.83;;;4.60;;
4268;SDS011;2148;48.554;7.834;2022-11-03T00:48:26;8.10;;;5.13;;
4268;SDS011;2148;48.554;7.834;2022-11-03T00:53:26;6.90;;;4.73;;
4268;SDS011;2148;48.554;7.834;2022-11-03T00:55:51;6.47;;;5.23;;
4268;SDS011;2148;48.554;7.834;2022-11-03T00:58:17;7.27;;;5.27;;
4268;SDS011;2148;48.554;7.834;2022-11-03T01:00:42;9.13;;;4.90;;
4268;SDS011;2148;48.554;7.834;2022-11-03T01:03:07;6.90;;;5.33;;
4268;SDS011;2148;48.554;7.834;2022-11-03T01:05:32;7.37;;;4.67;;
4268;SDS011;2148;48.554;7.834;2022-11-03T01:08:16;7.90;;;4.50;;
4268;SDS011;2148;48.554;7.834;2022-11-03T01:10:42;5.37;;;4.03;;
4268;SDS011;2148;48.554;7.834;2022-11-03T01:13:27;8.13;;;4.73;;
4268;SDS011;2148;48.554;7.834;2022-11-03T01:15:55;7.20;;;4.20;;
4268;SDS011;2148;48.554;7.834;2022-11-03T01:18:22;6.47;;;4.20;;
4268;SDS011;2148;48.554;7.834;2022-11-03T01:20:52;7.97;;;4.70;;
4268;SDS011;2148;48.554;7.834;2022-11-03T01:23:18;6.23;;;4.63;;
4268;SDS011;2148;48.554;7.834;2022-11-03T01:25:43;5.63;;;4.33;;
4268;SDS011;2148;48.554;7.834;2022-11-03T01:28:09;5.20;;;4.60;;
4268;SDS011;2148;48.554;7.834;2022-11-03T01:30:34;6.87;;;4.30;;
4268;SDS011;2148;48.554;7.834;2022-11-03T01:32:59;7.67;;;4.27;;
4268;SDS011;2148;48.554;7.834;2022-11-03T01:35:24;5.60;;;4.37;;
4268;SDS011;2148;48.554;7.834;2022-11-03T01:37:50;6.63;;;4.67;;
4268;SDS011;2148;48.554;7.834;2022-11-03T01:40:15;6.67;;;4.27;;
4268;SDS011;2148;48.554;7.834;2022-11-03T01:42:40;5.00;;;3.83;;
4268;SDS011;2148;48.554;7.834;2022-11-03T01:45:06;7.10;;;4.00;;
4268;SDS011;2148;48.554;7.834;2022-11-03T01:47:32;7.27;;;4.63;;
4268;SDS011;2148;48.554;7.834;2022-11-03T01:50:04;6.40;;;4.13;;
4268;SDS011;2148;48.554;7.834;2022-11-03T01:52:42;5.57;;;4.23;;
4268;SDS011;2148;48.554;7.834;2022-11-03T01:55:12;6.23;;;3.90;;
4268;SDS011;2148;48.554;7.834;2022-11-03T01:57:42;11.60;;;4.67;;
4268;SDS011;2148;48.554;7.834;2022-11-03T02:00:11;6.43;;;4.00;;
4268;SDS011;2148;48.554;7.834;2022-11-03T02:02:37;6.80;;;4.23;;
4268;SDS011;2148;48.554;7.834;2022-11-03T02:05:02;6.33;;;4.47;;
4268;SDS011;2148;48.554;7.834;2022-11-03T02:07:33;7.10;;;4.33;;
4268;SDS011;2148;48.554;7.834;2022-11-03T02:10:01;5.17;;;3.93;;
4268;SDS011;2148;48.554;7.834;2022-11-03T02:12:26;5.87;;;4.07;;
4268;SDS011;2148;48.554;7.834;2022-11-03T02:14:53;6.47;;;4.33;;
4268;SDS011;2148;48.554;7.834;2022-11-03T02:17:20;5.07;;;3.97;;
4268;SDS011;2148;48.554;7.834;2022-11-03T02:19:47;6.13;;;4.00;;
4268;SDS011;2148;48.554;7.834;2022-11-03T02:25:28;6.03;;;4.00;;
4268;SDS011;2148;48.554;7.834;2022-11-03T02:27:58;5.80;;;3.83;;
4268;SDS011;2148;48.554;7.834;2022-11-03T02:30:24;7.43;;;4.40;;
4268;SDS011;2148;48.554;7.834;2022-11-03T02:32:54;6.30;;;3.60;;
4268;SDS011;2148;48.554;7.834;2022-11-03T02:35:36;4.60;;;3.50;;
4268;SDS011;2148;48.554;7.834;2022-11-03T02:38:04;5.10;;;3.87;;
4268;SDS011;2148;48.554;7.834;2022-11-03T02:40:35;6.03;;;3.87;;
4268;SDS011;2148;48.554;7.834;2022-11-03T02:43:02;6.03;;;4.00;;
4268;SDS011;2148;48.554;7.834;2022-11-03T02:45:29;5.40;;;3.73;;
4268;SDS011;2148;48.554;7.834;2022-11-03T02:47:57;5.50;;;3.77;;
4268;SDS011;2148;48.554;7.834;2022-11-03T02:50:27;5.40;;;3.73;;
4268;SDS011;2148;48.554;7.834;2022-11-03T02:52:53;5.90;;;3.73;;
4268;SDS011;2148;48.554;7.834;2022-11-03T02:58:03;4.93;;;3.97;;
4268;SDS011;2148;48.554;7.834;2022-11-03T03:00:31;5.37;;;4.00;;
4268;SDS011;2148;48.554;7.834;2022-11-03T03:03:01;5.90;;;4.00;;
4268;SDS011;2148;48.554;7.834;2022-11-03T03:05:31;6.37;;;4.00;;
4268;SDS011;2148;48.554;7.834;2022-11-03T03:07:59;5.77;;;4.00;;
4268;SDS011;2148;48.554;7.834;2022-11-03T03:10:30;5.10;;;3.60;;
4268;SDS011;2148;48.554;7.834;2022-11-03T03:12:57;8.80;;;3.53;;
4268;SDS011;2148;48.554;7.834;2022-11-03T03:15:29;6.23;;;3.87;;
4268;SDS011;2148;48.554;7.834;2022-11-03T03:18:04;6.20;;;3.80;;
4268;SDS011;2148;48.554;7.834;2022-11-03T03:20:39;7.87;;;3.50;;
4268;SDS011;2148;48.554;7.834;2022-11-03T03:25:44;5.40;;;3.93;;
4268;SDS011;2148;48.554;7.834;2022-11-03T03:28:18;4.60;;;3.83;;
4268;SDS011;2148;48.554;7.834;2022-11-03T03:30:47;5.27;;;3.53;;
4268;SDS011;2148;48.554;7.834;2022-11-03T03:33:12;5.70;;;3.80;;
4268;SDS011;2148;48.554;7.834;2022-11-03T03:35:39;8.23;;;3.47;;
4268;SDS011;2148;48.554;7.834;2022-11-03T03:38:13;5.57;;;3.53;;
4268;SDS011;2148;48.554;7.834;2022-11-03T03:40:43;6.30;;;4.20;;
4268;SDS011;2148;48.554;7.834;2022-11-03T03:43:11;6.20;;;3.23;;
4268;SDS011;2148;48.554;7.834;2022-11-03T03:45:38;5.47;;;3.73;;
4268;SDS011;2148;48.554;7.834;2022-11-03T03:48:03;3.83;;;3.40;;
4268;SDS011;2148;48.554;7.834;2022-11-03T03:50:30;4.77;;;3.20;;
4268;SDS011;2148;48.554;7.834;2022-11-03T03:52:59;5.93;;;3.33;;
4268;SDS011;2148;48.554;7.834;2022-11-03T03:55:33;5.93;;;3.57;;
4268;SDS011;2148;48.554;7.834;2022-11-03T03:58:03;7.33;;;3.50;;
4268;SDS011;2148;48.554;7.834;2022-11-03T04:00:29;5.97;;;3.27;;
4268;SDS011;2148;48.554;7.834;2022-11-03T04:02:57;7.43;;;3.27;;
4268;SDS011;2148;48.554;7.834;2022-11-03T04:05:23;4.93;;;3.17;;
4268;SDS011;2148;48.554;7.834;2022-11-03T04:07:49;5.63;;;3.70;;
4268;SDS011;2148;48.554;7.834;2022-11-03T04:10:18;3.87;;;2.97;;
4268;SDS011;2148;48.554;7.834;2022-11-03T04:12:45;5.17;;;2.93;;
4268;SDS011;2148;48.554;7.834;2022-11-03T04:15:29;5.97;;;3.67;;
4268;SDS011;2148;48.554;7.834;2022-11-03T04:18:21;4.53;;;3.27;;
4268;SDS011;2148;48.554;7.834;2022-11-03T04:21:06;5.03;;;3.70;;
4268;SDS011;2148;48.554;7.834;2022-11-03T04:23:53;4.47;;;3.17;;
4268;SDS011;2148;48.554;7.834;2022-11-03T04:26:18;5.67;;;3.43;;
4268;SDS011;2148;48.554;7.834;2022-11-03T04:28:47;5.00;;;3.47;;
4268;SDS011;2148;48.554;7.834;2022-11-03T04:31:13;7.27;;;3.80;;
4268;SDS011;2148;48.554;7.834;2022-11-03T04:33:39;7.13;;;3.57;;
4268;SDS011;2148;48.554;7.834;2022-11-03T04:36:09;3.97;;;3.50;;
4268;SDS011;2148;48.554;7.834;2022-11-03T04:38:38;5.70;;;4.07;;
4268;SDS011;2148;48.554;7.834;2022-11-03T04:41:11;6.83;;;4.93;;
4268;SDS011;2148;48.554;7.834;2022-11-03T04:43:39;9.93;;;5.43;;
4268;SDS011;2148;48.554;7.834;2022-11-03T04:46:04;5.90;;;4.50;;
4268;SDS011;2148;48.554;7.834;2022-11-03T04:48:34;5.13;;;3.87;;
4268;SDS011;2148;48.554;7.834;2022-11-03T04:50:59;5.83;;;4.10;;
4268;SDS011;2148;48.554;7.834;2022-11-03T04:53:27;4.70;;;3.47;;
4268;SDS011;2148;48.554;7.834;2022-11-03T04:55:55;4.43;;;3.27;;
4268;SDS011;2148;48.554;7.834;2022-11-03T05:00:51;3.90;;;3.33;;
4268;SDS011;2148;48.554;7.834;2022-11-03T05:03:22;4.07;;;3.40;;
4268;SDS011;2148;48.554;7.834;2022-11-03T05:05:49;4.43;;;3.33;;
4268;SDS011;2148;48.554;7.834;2022-11-03T05:08:15;4.90;;;3.30;;
4268;SDS011;2148;48.554;7.834;2022-11-03T05:10:41;5.63;;;3.80;;
4268;SDS011;2148;48.554;7.834;2022-11-03T05:13:20;4.70;;;3.30;;
4268;SDS011;2148;48.554;7.834;2022-11-03T05:15:48;5.67;;;3.23;;
4268;SDS011;2148;48.554;7.834;2022-11-03T05:18:24;5.47;;;3.00;;
4268;SDS011;2148;48.554;7.834;2022-11-03T05:23:19;5.57;;;3.47;;
4268;SDS011;2148;48.554;7.834;2022-11-03T05:25:49;5.30;;;3.57;;
4268;SDS011;2148;48.554;7.834;2022-11-03T05:28:20;5.50;;;3.10;;
4268;SDS011;2148;48.554;7.834;2022-11-03T05:30:54;3.67;;;3.27;;
4268;SDS011;2148;48.554;7.834;2022-11-03T05:35:52;7.07;;;3.40;;
4268;SDS011;2148;48.554;7.834;2022-11-03T05:38:18;4.90;;;3.23;;
4268;SDS011;2148;48.554;7.834;2022-11-03T05:40:44;7.70;;;3.50;;
4268;SDS011;2148;48.554;7.834;2022-11-03T05:43:11;4.87;;;3.13;;
4268;SDS011;2148;48.554;7.834;2022-11-03T05:45:37;3.77;;;3.03;;
4268;SDS011;2148;48.554;7.834;2022-11-03T05:48:09;4.77;;;3.43;;
4268;SDS011;2148;48.554;7.834;2022-11-03T05:50:37;4.10;;;3.03;;
4268;SDS011;2148;48.554;7.834;2022-11-03T05:53:12;4.67;;;3.00;;
4268;SDS011;2148;48.554;7.834;2022-11-03T05:56:13;4.63;;;3.33;;
4268;SDS011;2148;48.554;7.834;2022-11-03T05:58:42;5.67;;;3.63;;
4268;SDS011;2148;48.554;7.834;2022-11-03T06:03:42;6.87;;;3.33;;
4268;SDS011;2148;48.554;7.834;2022-11-03T06:08:47;4.70;;;3.43;;
4268;SDS011;2148;48.554;7.834;2022-11-03T06:11:26;6.10;;;3.23;;
4268;SDS011;2148;48.554;7.834;2022-11-03T06:13:54;4.97;;;3.20;;
4268;SDS011;2148;48.554;7.834;2022-11-03T06:16:30;6.40;;;3.40;;
4268;SDS011;2148;48.554;7.834;2022-11-03T06:18:55;3.40;;;3.10;;
4268;SDS011;2148;48.554;7.834;2022-11-03T06:21:22;5.60;;;3.57;;
4268;SDS011;2148;48.554;7.834;2022-11-03T06:23:48;4.63;;;3.37;;
4268;SDS011;2148;48.554;7.834;2022-11-03T06:26:18;3.83;;;2.90;;
4268;SDS011;2148;48.554;7.834;2022-11-03T06:28:45;4.30;;;3.50;;
4268;SDS011;2148;48.554;7.834;2022-11-03T06:31:13;5.40;;;3.83;;
4268;SDS011;2148;48.554;7.834;2022-11-03T06:33:48;5.93;;;3.50;;
4268;SDS011;2148;48.554;7.834;2022-11-03T06:36:15;6.93;;;3.77;;
4268;SDS011;2148;48.554;7.834;2022-11-03T06:38:42;5.47;;;4.00;;
4268;SDS011;2148;48.554;7.834;2022-11-03T06:41:19;6.40;;;4.73;;
4268;SDS011;2148;48.554;7.834;2022-11-03T06:43:48;8.90;;;4.17;;
4268;SDS011;2148;48.554;7.834;2022-11-03T06:46:17;4.97;;;3.30;;
4268;SDS011;2148;48.554;7.834;2022-11-03T06:48:43;4.97;;;3.00;;
4268;SDS011;2148;48.554;7.834;2022-11-03T06:51:17;4.63;;;3.00;;
4268;SDS011;2148;48.554;7.834;2022-11-03T06:53:44;6.70;;;3.70;;
4268;SDS011;2148;48.554;7.834;2022-11-03T06:56:17;5.30;;;3.27;;
4268;SDS011;2148;48.554;7.834;2022-11-03T06:58:44;4.23;;;3.77;;
4268;SDS011;2148;48.554;7.834;2022-11-03T07:01:20;5.93;;;4.70;;
4268;SDS011;2148;48.554;7.834;2022-11-03T07:03:51;4.80;;;3.70;;
4268;SDS011;2148;48.554;7.834;2022-11-03T07:06:20;9.13;;;4.80;;
4268;SDS011;2148;48.554;7.834;2022-11-03T07:08:55;4.10;;;3.50;;
4268;SDS011;2148;48.554;7.834;2022-11-03T07:11:23;5.47;;;4.03;;
4268;SDS011;2148;48.554;7.834;2022-11-03T07:13:56;4.43;;;3.57;;
4268;SDS011;2148;48.554;7.834;2022-11-03T07:16:36;7.17;;;4.13;;
4268;SDS011;2148;48.554;7.834;2022-11-03T07:19:12;4.70;;;3.63;;
4268;SDS011;2148;48.554;7.834;2022-11-03T07:21:44;6.17;;;3.90;;
4268;SDS011;2148;48.554;7.834;2022-11-03T07:24:23;5.83;;;3.37;;
4268;SDS011;2148;48.554;7.834;2022-11-03T07:26:55;6.03;;;4.00;;
4268;SDS011;2148;48.554;7.834;2022-11-03T07:29:42;9.57;;;3.90;;
4268;SDS011;2148;48.554;7.834;2022-11-03T07:32:08;5.13;;;3.50;;
4268;SDS011;2148;48.554;7.834;2022-11-03T07:34:38;5.50;;;3.53;;
4268;SDS011;2148;48.554;7.834;2022-11-03T07:37:04;6.10;;;3.53;;
4268;SDS011;2148;48.554;7.834;2022-11-03T07:39:32;6.90;;;4.30;;
4268;SDS011;2148;48.554;7.834;2022-11-03T07:42:01;9.20;;;5.23;;
4268;SDS011;2148;48.554;7.834;2022-11-03T07:44:27;9.17;;;4.90;;
4268;SDS011;2148;48.554;7.834;2022-11-03T07:46:53;8.63;;;4.00;;
4268;SDS011;2148;48.554;7.834;2022-11-03T07:49:28;8.03;;;5.10;;
4268;SDS011;2148;48.554;7.834;2022-11-03T07:51:55;6.40;;;4.43;;
4268;SDS011;2148;48.554;7.834;2022-11-03T07:54:22;4.80;;;3.80;;
4268;SDS011;2148;48.554;7.834;2022-11-03T07:57:00;7.80;;;4.50;;
4268;SDS011;2148;48.554;7.834;2022-11-03T07:59:34;4.70;;;3.43;;
4268;SDS011;2148;48.554;7.834;2022-11-03T08:02:01;5.43;;;3.67;;
4268;SDS011;2148;48.554;7.834;2022-11-03T08:04:30;6.27;;;3.73;;
4268;SDS011;2148;48.554;7.834;2022-11-03T08:06:58;5.03;;;3.50;;
4268;SDS011;2148;48.554;7.834;2022-11-03T08:09:23;6.83;;;3.73;;
4268;SDS011;2148;48.554;7.834;2022-11-03T08:11:49;6.07;;;3.60;;
4268;SDS011;2148;48.554;7.834;2022-11-03T08:14:14;5.27;;;3.20;;
4268;SDS011;2148;48.554;7.834;2022-11-03T08:16:40;4.63;;;3.40;;
4268;SDS011;2148;48.554;7.834;2022-11-03T08:19:05;5.63;;;3.73;;
4268;SDS011;2148;48.554;7.834;2022-11-03T08:21:30;5.67;;;3.23;;
4268;SDS011;2148;48.554;7.834;2022-11-03T08:23:56;5.27;;;3.60;;
4268;SDS011;2148;48.554;7.834;2022-11-03T08:26:21;7.13;;;3.57;;
4268;SDS011;2148;48.554;7.834;2022-11-03T08:28:47;5.73;;;3.60;;
4268;SDS011;2148;48.554;7.834;2022-11-03T08:31:12;4.97;;;3.57;;
4268;SDS011;2148;48.554;7.834;2022-11-03T08:33:37;5.03;;;4.03;;
4268;SDS011;2148;48.554;7.834;2022-11-03T08:36:03;6.13;;;4.07;;
4268;SDS011;2148;48.554;7.834;2022-11-03T08:38:29;6.63;;;3.90;;
4268;SDS011;2148;48.554;7.834;2022-11-03T08:40:54;9.57;;;4.23;;
4268;SDS011;2148;48.554;7.834;2022-11-03T08:43:20;6.20;;;3.73;;
4268;SDS011;2148;48.554;7.834;2022-11-03T08:45:46;7.23;;;3.47;;
4268;SDS011;2148;48.554;7.834;2022-11-03T08:48:11;7.60;;;4.30;;
4268;SDS011;2148;48.554;7.834;2022-11-03T08:50:37;6.10;;;4.07;;
4268;SDS011;2148;48.554;7.834;2022-11-03T08:53:02;8.23;;;4.03;;
4268;SDS011;2148;48.554;7.834;2022-11-03T08:55:27;5.20;;;3.70;;
4268;SDS011;2148;48.554;7.834;2022-11-03T08:57:53;6.33;;;3.90;;
4268;SDS011;2148;48.554;7.834;2022-11-03T09:00:18;5.03;;;3.33;;
4268;SDS011;2148;48.554;7.834;2022-11-03T09:02:43;6.73;;;3.53;;
4268;SDS011;2148;48.554;7.834;2022-11-03T09:05:10;4.77;;;3.43;;
4268;SDS011;2148;48.554;7.834;2022-11-03T09:07:36;5.53;;;3.37;;
4268;SDS011;2148;48.554;7.834;2022-11-03T09:10:03;8.27;;;3.93;;
4268;SDS011;2148;48.554;7.834;2022-11-03T09:12:28;4.80;;;3.60;;
4268;SDS011;2148;48.554;7.834;2022-11-03T09:14:53;8.13;;;3.97;;
4268;SDS011;2148;48.554;7.834;2022-11-03T09:17:19;7.33;;;3.90;;
4268;SDS011;2148;48.554;7.834;2022-11-03T09:19:44;9.37;;;4.63;;
4268;SDS011;2148;48.554;7.834;2022-11-03T09:22:09;8.50;;;4.33;;
4268;SDS011;2148;48.554;7.834;2022-11-03T09:24:35;6.90;;;4.10;;
4268;SDS011;2148;48.554;7.834;2022-11-03T09:27:00;11.80;;;4.77;;
4268;SDS011;2148;48.554;7.834;2022-11-03T09:29:25;8.27;;;4.17;;
4268;SDS011;2148;48.554;7.834;2022-11-03T09:31:51;6.47;;;4.43;;
4268;SDS011;2148;48.554;7.834;2022-11-03T09:34:16;8.40;;;4.33;;
4268;SDS011;2148;48.554;7.834;2022-11-03T09:36:41;5.77;;;3.87;;
4268;SDS011;2148;48.554;7.834;2022-11-03T09:39:06;6.23;;;3.90;;
4268;SDS011;2148;48.554;7.834;2022-11-03T09:41:32;7.87;;;5.00;;
4268;SDS011;2148;48.554;7.834;2022-11-03T09:43:57;5.07;;;3.90;;
4268;SDS011;2148;48.554;7.834;2022-11-03T09:46:23;5.57;;;3.90;;
4268;SDS011;2148;48.554;7.834;2022-11-03T09:48:48;10.43;;;5.07;;
4268;SDS011;2148;48.554;7.834;2022-11-03T09:51:17;4.93;;;4.37;;
4268;SDS011;2148;48.554;7.834;2022-11-03T09:53:44;8.30;;;6.00;;
4268;SDS011;2148;48.554;7.834;2022-11-03T09:56:09;7.03;;;5.07;;
4268;SDS011;2148;48.554;7.834;2022-11-03T09:58:35;8.97;;;5.47;;
4268;SDS011;2148;48.554;7.834;2022-11-03T10:01:00;8.83;;;5.53;;
4268;SDS011;2148;48.554;7.834;2022-11-03T10:03:25;6.53;;;5.23;;
4268;SDS011;2148;48.554;7.834;2022-11-03T10:05:51;8.77;;;4.87;;
4268;SDS011;2148;48.554;7.834;2022-11-03T10:08:21;5.13;;;4.37;;
4268;SDS011;2148;48.554;7.834;2022-11-03T10:10:49;8.37;;;4.70;;
4268;SDS011;2148;48.554;7.834;2022-11-03T10:13:16;9.03;;;5.10;;
4268;SDS011;2148;48.554;7.834;2022-11-03T10:15:47;6.43;;;5.20;;
4268;SDS011;2148;48.554;7.834;2022-11-03T10:18:12;6.37;;;4.73;;
4268;SDS011;2148;48.554;7.834;2022-11-03T10:20:38;8.33;;;5.27;;
4268;SDS011;2148;48.554;7.834;2022-11-03T10:23:03;5.27;;;4.77;;
4268;SDS011;2148;48.554;7.834;2022-11-03T10:33:27;7.00;;;5.33;;
4268;SDS011;2148;48.554;7.834;2022-11-03T10:35:58;6.87;;;5.20;;
4268;SDS011;2148;48.554;7.834;2022-11-03T10:38:31;9.03;;;4.93;;
4268;SDS011;2148;48.554;7.834;2022-11-03T10:41:10;5.73;;;4.13;;
4268;SDS011;2148;48.554;7.834;2022-11-03T10:43:39;6.13;;;4.57;;
4268;SDS011;2148;48.554;7.834;2022-11-03T10:46:14;8.77;;;5.17;;
4268;SDS011;2148;48.554;7.834;2022-11-03T10:48:40;9.77;;;5.40;;
4268;SDS011;2148;48.554;7.834;2022-11-03T10:51:08;6.70;;;5.53;;
4268;SDS011;2148;48.554;7.834;2022-11-03T10:53:35;7.70;;;5.53;;
4268;SDS011;2148;48.554;7.834;2022-11-03T10:56:01;7.53;;;5.37;;
4268;SDS011;2148;48.554;7.834;2022-11-03T10:58:26;7.53;;;5.53;;
4268;SDS011;2148;48.554;7.834;2022-11-03T11:00:51;6.70;;;5.17;;
4268;SDS011;2148;48.554;7.834;2022-11-03T11:03:17;6.60;;;4.83;;
4268;SDS011;2148;48.554;7.834;2022-11-03T11:05:45;6.43;;;4.73;;
4268;SDS011;2148;48.554;7.834;2022-11-03T11:08:12;5.73;;;4.83;;
4268;SDS011;2148;48.554;7.834;2022-11-03T11:10:41;8.20;;;5.43;;
4268;SDS011;2148;48.554;7.834;2022-11-03T11:23:48;7.53;;;4.80;;
4268;SDS011;2148;48.554;7.834;2022-11-03T11:31:38;10.87;;;5.57;;
4268;SDS011;2148;48.554;7.834;2022-11-03T11:36:44;7.90;;;5.07;;
4268;SDS011;2148;48.554;7.834;2022-11-03T11:39:10;7.33;;;4.87;;
4268;SDS011;2148;48.554;7.834;2022-11-03T11:44:38;6.53;;;4.80;;
4268;SDS011;2148;48.554;7.834;2022-11-03T11:50:05;8.13;;;4.30;;
4268;SDS011;2148;48.554;7.834;2022-11-03T11:52:42;5.73;;;4.60;;
4268;SDS011;2148;48.554;7.834;2022-11-03T11:57:53;5.70;;;4.77;;
4268;SDS011;2148;48.554;7.834;2022-11-03T12:00:22;6.20;;;4.27;;
4268;SDS011;2148;48.554;7.834;2022-11-03T12:02:52;7.43;;;4.90;;
4268;SDS011;2148;48.554;7.834;2022-11-03T12:05:25;7.43;;;4.27;;
4268;SDS011;2148;48.554;7.834;2022-11-03T12:07:52;7.37;;;5.03;;
4268;SDS011;2148;48.554;7.834;2022-11-03T12:10:25;8.53;;;4.63;;
4268;SDS011;2148;48.554;7.834;2022-11-03T12:12:53;7.27;;;4.50;;
4268;SDS011;2148;48.554;7.834;2022-11-03T12:21:04;6.30;;;4.73;;
4268;SDS011;2148;48.554;7.834;2022-11-03T12:23:43;4.93;;;3.80;;
4268;SDS011;2148;48.554;7.834;2022-11-03T12:26:51;8.47;;;4.60;;
4268;SDS011;2148;48.554;7.834;2022-11-03T12:28:58;10.17;;;4.90;;
4268;SDS011;2148;48.554;7.834;2022-11-03T12:31:23;7.00;;;4.33;;
4268;SDS011;2148;48.554;7.834;2022-11-03T12:33:48;6.07;;;4.23;;
4268;SDS011;2148;48.554;7.834;2022-11-03T12:36:13;6.27;;;4.93;;
4268;SDS011;2148;48.554;7.834;2022-11-03T12:38:38;8.93;;;5.20;;
4268;SDS011;2148;48.554;7.834;2022-11-03T12:41:04;6.80;;;5.07;;
4268;SDS011;2148;48.554;7.834;2022-11-03T12:43:49;8.27;;;4.97;;
4268;SDS011;2148;48.554;7.834;2022-11-03T12:46:16;8.00;;;6.00;;
4268;SDS011;2148;48.554;7.834;2022-11-03T12:48:42;9.10;;;7.10;;
4268;SDS011;2148;48.554;7.834;2022-11-03T12:51:11;13.93;;;11.17;;
4268;SDS011;2148;48.554;7.834;2022-11-03T12:53:37;11.90;;;7.63;;
4268;SDS011;2148;48.554;7.834;2022-11-03T12:56:03;6.93;;;5.80;;
4268;SDS011;2148;48.554;7.834;2022-11-03T12:58:28;6.73;;;4.80;;
4268;SDS011;2148;48.554;7.834;2022-11-03T13:00:53;6.73;;;5.20;;
4268;SDS011;2148;48.554;7.834;2022-11-03T13:03:19;7.43;;;5.67;;
4268;SDS011;2148;48.554;7.834;2022-11-03T13:05:44;7.73;;;5.47;;
4268;SDS011;2148;48.554;7.834;2022-11-03T13:08:09;7.10;;;5.47;;
4268;SDS011;2148;48.554;7.834;2022-11-03T13:10:35;7.00;;;4.83;;
4268;SDS011;2148;48.554;7.834;2022-11-03T13:13:00;8.00;;;5.10;;
4268;SDS011;2148;48.554;7.834;2022-11-03T13:15:25;5.67;;;5.17;;
4268;SDS011;2148;48.554;7.834;2022-11-03T13:17:50;10.37;;;7.67;;
4268;SDS011;2148;48.554;7.834;2022-11-03T13:20:15;8.30;;;5.40;;
4268;SDS011;2148;48.554;7.834;2022-11-03T13:22:41;6.30;;;4.50;;
4268;SDS011;2148;48.554;7.834;2022-11-03T13:25:06;8.70;;;4.20;;
4268;SDS011;2148;48.554;7.834;2022-11-03T13:27:32;7.17;;;3.73;;
4268;SDS011;2148;48.554;7.834;2022-11-03T13:29:58;6.53;;;4.57;;
4268;SDS011;2148;48.554;7.834;2022-11-03T13:32:26;7.90;;;4.20;;
4268;SDS011;2148;48.554;7.834;2022-11-03T13:34:51;7.37;;;4.93;;
4268;SDS011;2148;48.554;7.834;2022-11-03T13:37:16;6.53;;;4.70;;
4268;SDS011;2148;48.554;7.834;2022-11-03T13:39:41;7.33;;;4.67;;
4268;SDS011;2148;48.554;7.834;2022-11-03T13:42:07;7.20;;;4.97;;
4268;SDS011;2148;48.554;7.834;2022-11-03T13:44:32;5.27;;;4.23;;
4268;SDS011;2148;48.554;7.834;2022-11-03T13:46:58;5.37;;;4.60;;
4268;SDS011;2148;48.554;7.834;2022-11-03T13:49:23;8.57;;;5.23;;
4268;SDS011;2148;48.554;7.834;2022-11-03T13:51:49;8.63;;;4.83;;
4268;SDS011;2148;48.554;7.834;2022-11-03T13:54:14;10.47;;;4.43;;
4268;SDS011;2148;48.554;7.834;2022-11-03T13:56:39;8.17;;;5.07;;
4268;SDS011;2148;48.554;7.834;2022-11-03T13:59:04;10.43;;;4.93;;
4268;SDS011;2148;48.554;7.834;2022-11-03T14:01:30;9.30;;;4.83;;
4268;SDS011;2148;48.554;7.834;2022-11-03T14:03:55;10.50;;;5.60;;
4268;SDS011;2148;48.554;7.834;2022-11-03T14:06:20;10.80;;;5.33;;
4268;SDS011;2148;48.554;7.834;2022-11-03T14:08:46;9.73;;;5.30;;
4268;SDS011;2148;48.554;7.834;2022-11-03T14:11:11;7.90;;;5.67;;
4268;SDS011;2148;48.554;7.834;2022-11-03T14:13:54;9.57;;;5.50;;
4268;SDS011;2148;48.554;7.834;2022-11-03T14:16:20;8.07;;;5.27;;
4268;SDS011;2148;48.554;7.834;2022-11-03T14:18:45;7.17;;;4.53;;
4268;SDS011;2148;48.554;7.834;2022-11-03T14:21:10;7.20;;;5.30;;
4268;SDS011;2148;48.554;7.834;2022-11-03T14:23:35;11.70;;;5.47;;
4268;SDS011;2148;48.554;7.834;2022-11-03T14:26:01;10.43;;;5.80;;
4268;SDS011;2148;48.554;7.834;2022-11-03T14:28:26;10.83;;;5.70;;
4268;SDS011;2148;48.554;7.834;2022-11-03T14:30:52;12.23;;;5.27;;
4268;SDS011;2148;48.554;7.834;2022-11-03T14:33:19;8.17;;;5.67;;
4268;SDS011;2148;48.554;7.834;2022-11-03T14:35:44;9.13;;;6.07;;
4268;SDS011;2148;48.554;7.834;2022-11-03T14:38:09;8.83;;;5.77;;
4268;SDS011;2148;48.554;7.834;2022-11-03T14:40:35;7.40;;;5.40;;
4268;SDS011;2148;48.554;7.834;2022-11-03T14:43:18;8.33;;;6.03;;
4268;SDS011;2148;48.554;7.834;2022-11-03T14:45:43;11.63;;;6.63;;
4268;SDS011;2148;48.554;7.834;2022-11-03T14:48:09;8.43;;;6.03;;
4268;SDS011;2148;48.554;7.834;2022-11-03T14:50:34;8.63;;;6.47;;
4268;SDS011;2148;48.554;7.834;2022-11-03T14:53:00;8.40;;;6.07;;
4268;SDS011;2148;48.554;7.834;2022-11-03T14:55:25;8.47;;;6.07;;
4268;SDS011;2148;48.554;7.834;2022-11-03T14:57:50;8.13;;;5.40;;
4268;SDS011;2148;48.554;7.834;2022-11-03T15:00:15;8.67;;;6.33;;
4268;SDS011;2148;48.554;7.834;2022-11-03T15:02:41;9.10;;;5.53;;
4268;SDS011;2148;48.554;7.834;2022-11-03T15:05:06;12.37;;;7.27;;
4268;SDS011;2148;48.554;7.834;2022-11-03T15:07:52;12.17;;;7.13;;
4268;SDS011;2148;48.554;7.834;2022-11-03T15:10:17;10.73;;;7.40;;
4268;SDS011;2148;48.554;7.834;2022-11-03T15:12:42;11.13;;;7.23;;
4268;SDS011;2148;48.554;7.834;2022-11-03T15:15:07;8.97;;;6.60;;
4268;SDS011;2148;48.554;7.834;2022-11-03T15:17:33;9.33;;;6.67;;
4268;SDS011;2148;48.554;7.834;2022-11-03T15:19:58;11.33;;;6.47;;
4268;SDS011;2148;48.554;7.834;2022-11-03T15:22:23;10.00;;;6.77;;
4268;SDS011;2148;48.554;7.834;2022-11-03T15:24:48;8.23;;;6.00;;
4268;SDS011;2148;48.554;7.834;2022-11-03T15:27:13;9.20;;;6.47;;
4268;SDS011;2148;48.554;7.834;2022-11-03T15:29:39;8.60;;;6.57;;
4268;SDS011;2148;48.554;7.834;2022-11-03T15:32:04;11.97;;;8.47;;
4268;SDS011;2148;48.554;7.834;2022-11-03T15:34:29;13.27;;;9.57;;
4268;SDS011;2148;48.554;7.834;2022-11-03T15:36:54;11.13;;;8.50;;
4268;SDS011;2148;48.554;7.834;2022-11-03T15:39:20;11.47;;;8.20;;
4268;SDS011;2148;48.554;7.834;2022-11-03T15:41:45;15.27;;;9.47;;
4268;SDS011;2148;48.554;7.834;2022-11-03T15:44:10;10.83;;;8.07;;
4268;SDS011;2148;48.554;7.834;2022-11-03T15:46:35;8.57;;;6.73;;
4268;SDS011;2148;48.554;7.834;2022-11-03T15:49:01;7.97;;;7.10;;
4268;SDS011;2148;48.554;7.834;2022-11-03T15:51:27;9.23;;;7.30;;
4268;SDS011;2148;48.554;7.834;2022-11-03T15:53:52;10.07;;;6.97;;
4268;SDS011;2148;48.554;7.834;2022-11-03T15:56:17;11.83;;;8.70;;
4268;SDS011;2148;48.554;7.834;2022-11-03T15:58:43;15.33;;;8.60;;
4268;SDS011;2148;48.554;7.834;2022-11-03T16:01:08;15.30;;;9.40;;
4268;SDS011;2148;48.554;7.834;2022-11-03T16:03:33;13.97;;;10.83;;
4268;SDS011;2148;48.554;7.834;2022-11-03T16:05:58;12.00;;;9.23;;
4268;SDS011;2148;48.554;7.834;2022-11-03T16:08:24;13.10;;;9.67;;
4268;SDS011;2148;48.554;7.834;2022-11-03T16:10:49;11.30;;;8.93;;
4268;SDS011;2148;48.554;7.834;2022-11-03T16:13:14;11.13;;;9.43;;
4268;SDS011;2148;48.554;7.834;2022-11-03T16:15:39;12.83;;;8.93;;
4268;SDS011;2148;48.554;7.834;2022-11-03T16:18:05;12.13;;;7.87;;
4268;SDS011;2148;48.554;7.834;2022-11-03T16:20:30;10.27;;;8.23;;
4268;SDS011;2148;48.554;7.834;2022-11-03T16:22:55;10.07;;;6.57;;
4268;SDS011;2148;48.554;7.834;2022-11-03T16:25:21;8.33;;;7.23;;